Hardinsburg, Kentucky
Current Conditions -  °F | °C
As of 10:10 AM on Monday 24 Nov 2014 (Local Time) from KFTK Reporting Station
Drizzle Drizzle  
Wind Chill: 39°   Ceiling: 1000
Heat Index: 46°   Visibility: 10mi
Dew Point: 43°   Wind: 22mph
Humidity: 87%   Direction: 260°W
Pressure: 29.63"   Gusts: 30mph
Location:  37.78°N, 86.46°W
Report Text: KFTK 241610Z AUTO 26019G26KT 10SM -DZ OVC010 08/06 A2963 RMK AO2 RAE1605DZB1557 CIG 009V011
Loading
Personal Weather Stations






























Interactive Weather Map New forecast layout! Learn more

10-Day Weather Forecast

Advertisements
Track Severe Weather on mobile